Time;durP1;ratioP1;P1;durP2;ratioP2;P2;SDS_P1;SDS_P2;PMS_P1;PMS_P2;Temp;Humidity;BMP_temperature;BMP_pressure;BME280_temperature;BME280_humidity;BME280_pressure;Samples;Min_cycle;Max_cycle;Signal;HPM_P1;HPM_P2
2021/05/21 00:00:39;;;;;;;4.00;3.63;;;12.30;99.90;;;;;;5013336;28;20216;-39
2021/05/21 00:03:06;;;;;;;4.30;3.88;;;12.30;99.90;;;;;;5012863;28;20212;-40
2021/05/21 00:05:33;;;;;;;4.43;4.03;;;12.30;99.90;;;;;;5013359;28;20200;-39
2021/05/21 00:07:59;;;;;;;3.50;3.20;;;12.30;99.90;;;;;;5023438;28;20199;-40
2021/05/21 00:10:26;;;;;;;3.90;3.55;;;12.40;99.90;;;;;;5020926;28;20214;-39
2021/05/21 00:12:53;;;;;;;4.85;3.38;;;12.30;99.90;;;;;;5025656;28;20211;-42
2021/05/21 00:15:21;;;;;;;2.92;2.08;;;12.30;99.90;;;;;;5016159;28;20195;-40
2021/05/21 00:17:48;;;;;;;3.30;2.35;;;12.30;99.90;;;;;;5014849;28;20539;-39
2021/05/21 00:20:15;;;;;;;1.80;1.70;;;12.30;99.90;;;;;;5017231;28;20221;-39
2021/05/21 00:22:42;;;;;;;1.92;1.83;;;12.20;99.90;;;;;;5012204;28;20248;-41
2021/05/21 00:25:09;;;;;;;1.90;1.70;;;12.20;99.90;;;;;;5015156;28;20204;-40
2021/05/21 00:27:36;;;;;;;2.97;2.13;;;12.30;99.90;;;;;;5010218;28;20224;-43
2021/05/21 00:30:05;;;;;;;2.00;1.80;;;12.30;99.90;;;;;;5005990;28;20219;-37
2021/05/21 00:32:32;;;;;;;1.77;1.67;;;12.40;99.90;;;;;;5014574;28;20224;-40
2021/05/21 00:35:00;;;;;;;1.63;1.52;;;12.40;99.90;;;;;;5018957;28;20243;-39
2021/05/21 00:37:27;;;;;;;3.72;1.90;;;12.50;99.90;;;;;;5013728;28;20241;-40
2021/05/21 00:39:53;;;;;;;4.18;1.73;;;12.50;99.90;;;;;;5012254;28;20229;-37
2021/05/21 00:42:20;;;;;;;3.67;1.75;;;12.50;99.90;;;;;;5006147;28;20586;-38
2021/05/21 00:44:55;;;;;;;5.40;1.95;;;12.50;99.90;;;;;;5013769;28;20500;-38
2021/05/21 00:47:22;;;;;;;2.20;2.10;;;12.40;99.90;;;;;;5021375;28;20195;-38
2021/05/21 00:49:50;;;;;;;2.10;1.80;;;12.50;99.90;;;;;;5012033;28;20563;-38
2021/05/21 00:52:18;;;;;;;3.22;2.17;;;12.60;99.90;;;;;;5017946;28;20212;-37
2021/05/21 00:54:45;;;;;;;1.88;1.60;;;12.60;99.90;;;;;;5016884;28;20192;-37
2021/05/21 00:57:12;;;;;;;5.18;1.77;;;12.60;99.90;;;;;;5017723;28;20192;-40
2021/05/21 00:59:39;;;;;;;2.97;1.90;;;12.60;99.90;;;;;;5010291;28;20294;-39
2021/05/21 01:02:07;;;;;;;2.05;1.85;;;12.60;99.90;;;;;;5025870;28;20702;-38
2021/05/21 01:04:35;;;;;;;1.73;1.63;;;12.50;99.90;;;;;;5011041;28;20524;-41
2021/05/21 01:07:03;;;;;;;2.70;2.13;;;12.50;99.90;;;;;;5020273;28;20199;-39
2021/05/21 01:09:30;;;;;;;3.17;1.95;;;12.60;99.90;;;;;;4999448;28;20203;-39
2021/05/21 01:11:57;;;;;;;2.50;2.00;;;12.60;99.90;;;;;;5032449;28;20244;-41
2021/05/21 01:14:24;;;;;;;4.10;1.70;;;12.70;99.90;;;;;;5014840;28;20287;-39
2021/05/21 01:16:51;;;;;;;2.28;1.98;;;12.70;99.90;;;;;;5026180;28;20192;-39
2021/05/21 01:19:17;;;;;;;1.52;1.42;;;12.70;99.90;;;;;;5024958;28;20307;-39
2021/05/21 01:21:45;;;;;;;2.00;1.83;;;12.70;99.90;;;;;;5024951;28;20727;-39
2021/05/21 01:24:12;;;;;;;1.55;1.45;;;12.70;99.90;;;;;;5028249;28;20196;-39
2021/05/21 01:26:39;;;;;;;1.77;1.67;;;12.70;99.90;;;;;;5027006;28;20274;-41
2021/05/21 01:29:07;;;;;;;1.73;1.60;;;12.70;99.90;;;;;;5013826;28;20262;-40
2021/05/21 01:31:34;;;;;;;1.92;1.55;;;12.70;99.90;;;;;;5031636;28;20287;-40
2021/05/21 01:34:01;;;;;;;2.08;1.98;;;12.70;99.90;;;;;;5031173;28;20207;-39
2021/05/21 01:36:28;;;;;;;1.63;1.52;;;12.70;99.90;;;;;;5030643;28;20250;-40
2021/05/21 01:38:57;;;;;;;2.50;2.00;;;12.70;99.90;;;;;;5011895;28;20265;-41
2021/05/21 01:41:24;;;;;;;3.75;1.95;;;12.60;99.90;;;;;;5012159;28;20320;-41
2021/05/21 01:43:51;;;;;;;1.85;1.70;;;12.60;99.90;;;;;;5012659;28;20519;-39
2021/05/21 01:46:20;;;;;;;3.63;1.88;;;12.50;99.90;;;;;;5020762;28;20204;-39
2021/05/21 01:48:47;;;;;;;1.92;1.83;;;12.50;99.90;;;;;;5027830;28;20188;-39
2021/05/21 01:51:14;;;;;;;2.20;2.00;;;12.50;99.90;;;;;;5026847;28;20284;-40
2021/05/21 01:53:41;;;;;;;2.15;1.95;;;12.40;99.90;;;;;;5014768;28;20205;-39
2021/05/21 01:56:09;;;;;;;1.98;1.88;;;12.40;99.90;;;;;;5020011;28;20192;-39
2021/05/21 01:58:36;;;;;;;4.20;2.03;;;12.50;99.90;;;;;;5017748;28;20197;-40
2021/05/21 02:01:03;;;;;;;1.90;1.77;;;12.40;99.90;;;;;;5017420;28;20211;-39
2021/05/21 02:03:31;;;;;;;2.70;1.73;;;12.50;99.90;;;;;;5029789;28;20211;-40
2021/05/21 02:05:59;;;;;;;1.90;1.80;;;12.50;99.90;;;;;;5030445;28;20270;-40
2021/05/21 02:08:27;;;;;;;3.78;1.73;;;12.50;99.90;;;;;;5022516;28;20433;-44
2021/05/21 02:10:54;;;;;;;3.15;1.88;;;12.50;99.90;;;;;;5009348;28;20206;-39
2021/05/21 02:13:23;;;;;;;2.20;1.70;;;12.50;99.90;;;;;;5031751;28;20231;-39
2021/05/21 02:15:50;;;;;;;2.97;1.67;;;12.50;99.90;;;;;;5023733;28;20307;-38
2021/05/21 02:18:17;;;;;;;2.45;2.25;;;12.70;99.90;;;;;;5014983;28;20204;-40
2021/05/21 02:20:44;;;;;;;3.65;1.42;;;12.70;99.90;;;;;;5011942;28;20216;-39
2021/05/21 02:23:12;;;;;;;2.83;1.85;;;12.70;99.90;;;;;;5031217;28;20708;-39
2021/05/21 02:25:39;;;;;;;1.75;1.60;;;12.80;99.90;;;;;;5002476;28;20189;-41
2021/05/21 02:28:06;;;;;;;1.90;1.75;;;12.70;99.90;;;;;;5025701;28;20192;-39
2021/05/21 02:30:33;;;;;;;1.60;1.50;;;12.80;99.90;;;;;;5027550;28;20481;-39
2021/05/21 02:33:00;;;;;;;3.10;2.20;;;12.70;99.90;;;;;;5025256;22;20244;-38
2021/05/21 02:35:27;;;;;;;2.80;1.60;;;12.70;99.90;;;;;;4993584;28;20288;-39
2021/05/21 02:37:54;;;;;;;3.15;2.08;;;12.60;99.90;;;;;;5005115;28;20205;-39
2021/05/21 02:40:20;;;;;;;2.65;2.08;;;12.60;99.90;;;;;;5011746;28;20244;-37
2021/05/21 02:42:47;;;;;;;2.58;1.85;;;12.60;99.90;;;;;;5012275;28;20216;-37
2021/05/21 02:45:15;;;;;;;2.40;1.95;;;12.50;99.90;;;;;;5011564;28;20655;-37
2021/05/21 02:47:42;;;;;;;2.15;2.05;;;12.40;99.90;;;;;;5011187;28;20561;-38
2021/05/21 02:50:09;;;;;;;3.30;2.08;;;12.50;99.90;;;;;;5011516;28;20279;-38
2021/05/21 02:52:36;;;;;;;2.40;2.17;;;12.60;99.90;;;;;;5012092;28;20247;-37
2021/05/21 02:55:04;;;;;;;2.20;2.00;;;12.60;99.90;;;;;;5011892;28;20821;-38
2021/05/21 02:57:31;;;;;;;1.83;1.73;;;12.60;99.90;;;;;;5011121;28;20279;-37
2021/05/21 02:59:58;;;;;;;2.35;1.83;;;12.60;99.90;;;;;;5011410;28;20275;-38
2021/05/21 03:02:24;;;;;;;2.40;2.15;;;12.60;99.90;;;;;;5011720;28;20213;-37
2021/05/21 03:04:53;;;;;;;2.58;2.38;;;12.60;99.90;;;;;;5010750;28;20196;-37
2021/05/21 03:07:19;;;;;;;2.15;1.73;;;12.60;99.90;;;;;;5011076;28;20678;-38
2021/05/21 03:09:46;;;;;;;3.08;1.98;;;12.70;99.90;;;;;;5010881;28;20247;-37
2021/05/21 03:12:13;;;;;;;1.80;1.70;;;12.70;99.90;;;;;;5011019;28;20303;-37
2021/05/21 03:14:39;;;;;;;2.10;2.00;;;12.60;99.90;;;;;;5011797;28;20712;-37
2021/05/21 03:17:06;;;;;;;3.60;2.05;;;12.60;99.90;;;;;;5010676;28;20292;-39
2021/05/21 03:19:33;;;;;;;5.95;1.90;;;12.60;99.90;;;;;;5010683;28;20721;-37
2021/05/21 03:22:00;;;;;;;2.30;2.10;;;12.60;99.90;;;;;;5011462;28;20267;-37
2021/05/21 03:24:27;;;;;;;2.90;1.63;;;12.70;99.90;;;;;;5011220;28;20697;-37
2021/05/21 03:26:54;;;;;;;3.10;2.10;;;12.70;99.90;;;;;;5010968;28;20693;-37
2021/05/21 03:29:20;;;;;;;2.35;1.90;;;12.60;99.90;;;;;;5010391;28;20283;-37
2021/05/21 03:31:47;;;;;;;2.95;2.25;;;12.60;99.90;;;;;;5010508;28;20213;-37
2021/05/21 03:34:14;;;;;;;4.72;2.20;;;12.70;99.90;;;;;;5011217;28;20196;-37
2021/05/21 03:36:41;;;;;;;4.20;2.03;;;12.70;99.90;;;;;;5011005;28;20689;-37
2021/05/21 03:39:08;;;;;;;1.95;1.85;;;12.70;99.90;;;;;;5010686;28;20224;-38
2021/05/21 03:41:35;;;;;;;1.92;1.67;;;12.80;99.90;;;;;;5011049;28;20208;-37
2021/05/21 03:44:04;;;;;;;2.42;2.22;;;12.70;99.90;;;;;;5010977;28;20212;-37
2021/05/21 03:46:31;;;;;;;2.15;2.03;;;12.70;99.90;;;;;;5010936;28;20193;-37
2021/05/21 03:49:00;;;;;;;2.40;1.67;;;12.70;99.90;;;;;;5010322;28;20196;-39
2021/05/21 03:51:27;;;;;;;2.33;2.13;;;12.70;99.90;;;;;;5010922;28;20212;-38
2021/05/21 03:53:55;;;;;;;2.00;1.80;;;12.70;99.90;;;;;;5010797;28;20729;-37
2021/05/21 03:56:22;;;;;;;1.85;1.75;;;12.60;99.90;;;;;;5010544;28;20189;-37
2021/05/21 03:58:51;;;;;;;5.80;2.38;;;12.70;99.90;;;;;;5009535;28;20705;-37
2021/05/21 04:01:17;;;;;;;3.03;1.65;;;12.70;99.90;;;;;;5010301;28;20287;-38
2021/05/21 04:03:44;;;;;;;1.83;1.73;;;12.60;99.90;;;;;;5010672;28;20224;-37
2021/05/21 04:06:10;;;;;;;2.20;2.10;;;12.60;99.90;;;;;;5010634;28;20557;-38
2021/05/21 04:08:37;;;;;;;2.10;2.00;;;12.60;99.90;;;;;;5008035;28;20198;-39
2021/05/21 04:11:04;;;;;;;2.53;2.15;;;12.60;99.90;;;;;;5009874;28;20189;-37
2021/05/21 04:13:31;;;;;;;1.88;1.73;;;12.50;99.90;;;;;;5010012;28;20224;-37
2021/05/21 04:15:59;;;;;;;3.20;1.90;;;12.60;99.90;;;;;;5009966;28;20683;-37
2021/05/21 04:18:25;;;;;;;1.60;1.55;;;12.70;99.90;;;;;;5009806;28;20693;-38
2021/05/21 04:20:52;;;;;;;2.90;2.13;;;12.70;99.90;;;;;;5010254;28;20229;-37
2021/05/21 04:23:19;;;;;;;2.13;1.92;;;12.70;99.90;;;;;;5010122;28;20213;-37
2021/05/21 04:25:48;;;;;;;1.67;1.58;;;12.70;99.90;;;;;;5010134;28;20209;-38
2021/05/21 04:28:15;;;;;;;2.45;1.80;;;12.70;99.90;;;;;;5010403;28;20298;-37
2021/05/21 04:30:42;;;;;;;4.03;1.92;;;12.80;99.90;;;;;;5010004;28;20697;-36
2021/05/21 04:33:09;;;;;;;3.35;2.13;;;12.80;99.90;;;;;;5010266;28;20223;-37
2021/05/21 04:35:36;;;;;;;1.80;1.70;;;12.80;99.90;;;;;;5009867;28;20196;-38
2021/05/21 04:38:03;;;;;;;2.28;2.00;;;12.90;99.90;;;;;;5009440;28;20227;-37
2021/05/21 04:40:30;;;;;;;2.55;2.35;;;12.90;99.90;;;;;;5010990;28;20224;-37
2021/05/21 04:42:56;;;;;;;2.60;2.42;;;12.90;99.90;;;;;;5014226;28;20295;-37
2021/05/21 04:45:23;;;;;;;3.58;2.20;;;12.90;99.90;;;;;;5013966;28;20667;-37
2021/05/21 04:47:51;;;;;;;1.88;1.60;;;12.80;99.90;;;;;;5013647;28;20250;-39
2021/05/21 04:50:18;;;;;;;3.72;1.80;;;12.80;99.90;;;;;;5013583;28;20339;-37
2021/05/21 04:52:44;;;;;;;2.58;2.10;;;12.80;99.90;;;;;;5013702;28;20706;-38
2021/05/21 04:55:12;;;;;;;2.35;1.95;;;12.90;99.90;;;;;;5014480;28;20296;-38
2021/05/21 04:57:39;;;;;;;1.90;1.80;;;13.00;99.90;;;;;;5013650;28;20685;-37
2021/05/21 05:00:07;;;;;;;2.70;1.85;;;13.00;99.90;;;;;;5013368;28;20239;-39
2021/05/21 05:02:34;;;;;;;1.90;1.65;;;13.10;99.90;;;;;;5013982;28;20481;-37
2021/05/21 05:05:01;;;;;;;5.63;2.20;;;13.00;99.90;;;;;;4996467;28;20201;-38
2021/05/21 05:07:29;;;;;;;2.47;2.28;;;13.20;99.90;;;;;;5013026;28;20197;-38
2021/05/21 05:09:55;;;;;;;2.30;1.70;;;13.30;99.90;;;;;;5012906;28;20193;-37
2021/05/21 05:12:22;;;;;;;1.85;1.45;;;13.40;99.90;;;;;;5013493;28;20279;-37
2021/05/21 05:14:49;;;;;;;1.40;1.30;;;13.40;99.90;;;;;;5012717;28;20592;-37
2021/05/21 05:17:16;;;;;;;3.47;1.95;;;13.40;99.90;;;;;;5011776;28;20231;-38
2021/05/21 05:19:43;;;;;;;1.77;1.65;;;13.50;99.90;;;;;;5013030;28;20213;-37
2021/05/21 05:22:11;;;;;;;2.53;1.80;;;13.60;99.90;;;;;;5013152;28;20310;-38
2021/05/21 05:24:38;;;;;;;1.73;1.63;;;13.80;99.90;;;;;;5013113;28;20544;-38
2021/05/21 05:27:06;;;;;;;2.65;1.58;;;14.00;99.90;;;;;;5013556;28;20200;-37
2021/05/21 05:29:34;;;;;;;2.55;1.85;;;14.20;99.90;;;;;;5013039;28;20271;-37
2021/05/21 05:32:01;;;;;;;1.63;1.40;;;14.20;99.90;;;;;;5013377;28;20236;-37
2021/05/21 05:34:28;;;;;;;1.48;1.38;;;14.20;99.90;;;;;;5012623;28;20776;-39
2021/05/21 05:36:55;;;;;;;4.07;1.65;;;14.10;99.90;;;;;;5013205;28;20184;-37
2021/05/21 05:39:22;;;;;;;4.50;1.40;;;14.10;99.90;;;;;;5012526;28;20219;-39
2021/05/21 05:41:50;;;;;;;1.85;1.30;;;14.10;99.90;;;;;;5012957;28;20223;-37
2021/05/21 05:44:17;;;;;;;6.78;1.40;;;14.10;99.90;;;;;;5012640;28;20287;-37
2021/05/21 05:46:44;;;;;;;3.80;1.27;;;14.20;99.90;;;;;;5012666;28;20215;-39
2021/05/21 05:49:11;;;;;;;2.40;1.50;;;14.40;99.90;;;;;;5012914;28;20200;-37
2021/05/21 05:51:37;;;;;;;1.67;1.52;;;14.40;99.90;;;;;;5012102;28;20205;-37
2021/05/21 05:54:04;;;;;;;7.35;1.95;;;14.20;99.90;;;;;;5012157;28;20192;-38
2021/05/21 05:56:32;;;;;;;1.50;1.40;;;14.20;99.90;;;;;;5013165;28;20204;-37
2021/05/21 05:58:58;;;;;;;1.63;1.52;;;14.20;99.90;;;;;;5012127;28;20280;-38
2021/05/21 06:01:25;;;;;;;1.48;1.35;;;14.30;99.90;;;;;;5012019;28;20197;-39
2021/05/21 06:03:52;;;;;;;1.60;1.50;;;14.30;99.90;;;;;;5012772;28;20240;-37
2021/05/21 06:06:19;;;;;;;1.55;1.25;;;14.30;99.90;;;;;;5012099;28;20633;-37
2021/05/21 06:08:45;;;;;;;2.45;1.42;;;14.30;99.90;;;;;;5011425;28;20683;-37
2021/05/21 06:11:12;;;;;;;2.83;2.05;;;14.20;99.90;;;;;;5012423;28;20193;-38
2021/05/21 06:13:39;;;;;;;1.48;1.13;;;14.20;99.90;;;;;;5012113;28;20211;-39
2021/05/21 06:16:06;;;;;;;2.00;1.30;;;14.40;99.90;;;;;;5012687;28;20212;-39
2021/05/21 06:18:33;;;;;;;2.17;1.50;;;14.50;99.90;;;;;;5011815;28;20549;-37
2021/05/21 06:21:00;;;;;;;3.95;2.25;;;14.60;99.90;;;;;;5012406;28;20212;-38
2021/05/21 06:23:28;;;;;;;1.30;1.20;;;14.60;99.90;;;;;;5012270;28;20212;-38
2021/05/21 06:26:10;;;;;;;1.20;1.10;;;14.50;99.90;;;;;;5012456;28;20197;-38
2021/05/21 06:28:37;;;;;;;5.18;1.73;;;14.60;99.90;;;;;;5011563;28;20212;-40
2021/05/21 06:31:05;;;;;;;1.88;1.52;;;14.70;99.90;;;;;;5012041;28;20192;-38
2021/05/21 06:33:32;;;;;;;1.52;1.42;;;14.60;99.90;;;;;;5010739;28;20230;-37
2021/05/21 06:35:58;;;;;;;3.17;1.30;;;14.60;99.90;;;;;;5011803;28;20235;-37
2021/05/21 06:38:25;;;;;;;2.35;1.17;;;14.60;99.90;;;;;;5028895;22;20235;-78
2021/05/21 06:40:52;;;;;;;1.60;1.27;;;14.50;99.90;;;;;;5034577;28;20212;-80
2021/05/21 06:43:20;;;;;;;4.13;1.52;;;14.50;99.90;;;;;;5040318;28;20637;-77
2021/05/21 06:45:48;;;;;;;2.15;1.38;;;14.50;99.90;;;;;;5046191;28;20192;-78
2021/05/21 06:48:16;;;;;;;2.03;1.58;;;14.50;99.90;;;;;;5078228;28;20226;-76
2021/05/21 06:50:43;;;;;;;1.33;1.23;;;14.40;99.90;;;;;;5064187;28;20186;-76
2021/05/21 06:53:11;;;;;;;1.33;1.23;;;14.50;99.90;;;;;;5062957;23;20223;-39
2021/05/21 06:55:39;;;;;;;1.48;1.10;;;14.40;99.90;;;;;;5018465;28;20915;-38
2021/05/21 06:58:06;;;;;;;2.15;1.10;;;14.40;99.90;;;;;;5022529;28;20678;-42
2021/05/21 07:00:36;;;;;;;3.53;1.63;;;14.60;99.90;;;;;;5019488;28;20216;-37
2021/05/21 07:03:02;;;;;;;2.65;1.90;;;14.70;99.90;;;;;;5017449;28;20286;-37
2021/05/21 07:05:30;;;;;;;1.52;1.45;;;14.90;99.90;;;;;;5035207;22;20602;-40
2021/05/21 07:07:57;;;;;;;1.80;1.40;;;15.10;99.90;;;;;;5004708;28;20227;-41
2021/05/21 07:10:23;;;;;;;1.13;1.02;;;15.30;99.90;;;;;;4990489;28;20201;-40
2021/05/21 07:12:50;;;;;;;1.40;1.15;;;15.30;99.90;;;;;;4995837;28;20640;-39
2021/05/21 07:15:16;;;;;;;3.92;1.70;;;15.50;99.90;;;;;;5005607;28;20204;-40
2021/05/21 07:17:45;;;;;;;2.05;1.40;;;15.60;99.90;;;;;;5002382;28;20694;-41
2021/05/21 07:20:14;;;;;;;2.78;1.20;;;15.80;99.90;;;;;;4977232;28;20663;-40
2021/05/21 07:22:42;;;;;;;4.20;1.20;;;15.60;99.90;;;;;;4993150;28;20251;-38
2021/05/21 07:25:10;;;;;;;1.98;1.35;;;15.60;99.90;;;;;;4991256;28;20691;-39
2021/05/21 07:27:37;;;;;;;1.33;1.05;;;15.80;99.90;;;;;;4978867;28;20213;-41
2021/05/21 07:30:05;;;;;;;1.30;1.08;;;15.90;99.90;;;;;;4990234;28;20193;-40
2021/05/21 07:32:31;;;;;;;4.75;1.48;;;15.80;99.90;;;;;;5001904;28;20274;-40
2021/05/21 07:34:58;;;;;;;3.83;2.10;;;15.80;99.90;;;;;;4993441;28;20628;-39
2021/05/21 07:37:25;;;;;;;1.08;0.98;;;15.70;99.90;;;;;;4993284;28;20235;-40
2021/05/21 07:39:53;;;;;;;4.00;1.83;;;15.80;99.90;;;;;;4990290;28;20239;-39
2021/05/21 07:42:19;;;;;;;1.48;0.93;;;15.80;99.90;;;;;;5002454;28;20200;-40
2021/05/21 07:44:50;;;;;;;2.22;1.17;;;15.90;99.90;;;;;;4971469;28;20726;-40
2021/05/21 07:47:17;;;;;;;4.90;2.38;;;15.90;99.90;;;;;;4977716;28;20232;-42
2021/05/21 07:49:43;;;;;;;4.13;1.40;;;15.90;99.90;;;;;;4990326;28;20664;-41
2021/05/21 07:52:10;;;;;;;3.33;1.50;;;15.70;99.90;;;;;;4990674;28;20204;-39
2021/05/21 07:54:37;;;;;;;3.25;1.83;;;15.60;99.90;;;;;;4990099;28;20209;-40
2021/05/21 07:57:05;;;;;;;6.32;1.60;;;15.60;99.90;;;;;;4992261;28;20245;-43
2021/05/21 07:59:32;;;;;;;2.10;1.27;;;16.00;99.90;;;;;;4998931;28;20710;-41
2021/05/21 08:01:58;;;;;;;3.88;1.50;;;16.10;99.90;;;;;;4995061;28;20208;-40
2021/05/21 08:04:25;;;;;;;7.00;2.15;;;16.00;99.90;;;;;;5001562;28;20259;-40
2021/05/21 08:06:52;;;;;;;3.67;1.58;;;16.20;99.90;;;;;;4990444;28;20309;-41
2021/05/21 08:09:19;;;;;;;4.75;1.50;;;16.40;99.90;;;;;;4990483;28;20280;-41
2021/05/21 08:11:45;;;;;;;2.83;1.33;;;16.50;99.90;;;;;;4991160;28;20193;-40
2021/05/21 08:14:13;;;;;;;1.30;1.13;;;16.40;99.90;;;;;;4991132;28;20205;-40
2021/05/21 08:16:40;;;;;;;5.07;1.83;;;16.10;99.90;;;;;;4990666;28;20213;-40
2021/05/21 08:19:07;;;;;;;4.90;1.52;;;16.00;99.90;;;;;;4990311;28;20248;-40
2021/05/21 08:21:34;;;;;;;1.25;1.15;;;16.20;99.90;;;;;;4990299;28;20209;-43
2021/05/21 08:24:01;;;;;;;2.70;2.25;;;16.30;99.90;;;;;;4990316;28;20572;-40
2021/05/21 08:26:29;;;;;;;2.88;1.25;;;16.20;99.90;;;;;;4991439;28;20235;-40
2021/05/21 08:28:57;;;;;;;1.35;1.20;;;16.00;99.90;;;;;;4983354;28;20215;-42
2021/05/21 08:31:25;;;;;;;4.90;2.30;;;16.00;99.90;;;;;;4990777;28;20201;-41
2021/05/21 08:33:52;;;;;;;7.20;2.00;;;15.90;99.90;;;;;;4990766;28;20284;-43
2021/05/21 08:36:20;;;;;;;2.38;1.63;;;15.70;99.90;;;;;;4990712;28;20712;-41
2021/05/21 08:38:48;;;;;;;6.68;1.80;;;15.70;99.90;;;;;;4990350;28;20194;-40
2021/05/21 08:41:17;;;;;;;3.40;1.63;;;15.90;99.90;;;;;;4997618;28;20216;-41
2021/05/21 08:43:48;;;;;;;6.70;1.92;;;16.00;99.90;;;;;;5001988;28;20204;-41
2021/05/21 08:46:15;;;;;;;2.65;1.48;;;16.10;99.90;;;;;;4990694;28;20221;-44
2021/05/21 08:48:42;;;;;;;3.58;1.52;;;16.60;99.90;;;;;;4990191;28;20221;-40
2021/05/21 08:51:10;;;;;;;2.78;1.40;;;16.70;99.90;;;;;;4991015;28;20312;-43
2021/05/21 08:53:37;;;;;;;4.53;1.15;;;17.20;99.90;;;;;;4995132;28;22127;-39
2021/05/21 08:56:04;;;;;;;1.80;1.15;;;17.30;99.90;;;;;;5002669;28;20247;-40
2021/05/21 08:58:31;;;;;;;3.88;1.73;;;17.30;99.90;;;;;;4989853;28;20212;-40
2021/05/21 09:00:58;;;;;;;3.38;1.55;;;17.20;99.90;;;;;;4994367;28;20209;-41
2021/05/21 09:03:26;;;;;;;5.78;1.50;;;16.80;99.90;;;;;;4992036;28;20256;-41
2021/05/21 09:06:13;;;;;;;3.78;1.75;;;16.60;99.90;;;;;;4999529;28;20336;-39
2021/05/21 09:08:43;;;;;;;3.67;1.50;;;16.60;99.90;;;;;;4990039;28;20598;-38
2021/05/21 09:11:40;;;;;;;3.25;1.65;;;16.50;99.90;;;;;;4993947;28;20205;-40
2021/05/21 09:14:11;;;;;;;5.43;1.92;;;16.70;99.90;;;;;;4905122;29;20894;-39
2021/05/21 09:16:39;;;;;;;2.53;1.52;;;16.90;99.90;;;;;;4966095;28;20593;-39
2021/05/21 09:19:08;;;;;;;3.15;1.40;;;17.00;99.90;;;;;;4989320;28;20268;-40
2021/05/21 09:21:57;;;;;;;3.00;1.45;;;16.90;99.90;;;;;;4993596;28;20733;-39
2021/05/21 09:24:28;;;;;;;5.57;1.58;;;16.80;99.90;;;;;;4989775;28;20197;-39
2021/05/21 09:26:56;;;;;;;3.78;1.50;;;16.70;99.90;;;;;;4991301;28;20267;-40
2021/05/21 09:29:35;;;;;;;3.50;1.83;;;17.00;99.90;;;;;;5004930;28;20736;-39
2021/05/21 09:32:19;;;;;;;3.40;2.03;;;17.20;99.90;;;;;;5011291;28;20204;-39
2021/05/21 09:34:48;;;;;;;3.00;1.33;;;17.40;99.90;;;;;;5001218;28;20201;-39
2021/05/21 09:37:23;;;;;;;5.15;1.38;;;17.50;99.90;;;;;;4978438;28;20221;-43
2021/05/21 09:40:08;;;;;;;3.92;1.52;;;17.90;99.90;;;;;;4995662;28;20225;-40
2021/05/21 09:42:53;;;;;;;1.67;1.13;;;17.80;99.90;;;;;;4995749;28;20691;-40
2021/05/21 09:45:28;;;;;;;2.15;1.20;;;17.50;99.90;;;;;;5009727;28;20197;-39
2021/05/21 09:48:01;;;;;;;4.15;1.85;;;17.40;99.90;;;;;;4997319;28;20197;-39
2021/05/21 09:50:34;;;;;;;4.13;1.00;;;17.40;99.90;;;;;;5010942;28;20209;-38
2021/05/21 09:53:05;;;;;;;4.03;1.95;;;17.30;99.90;;;;;;4999836;28;20197;-39
2021/05/21 09:55:37;;;;;;;5.68;1.90;;;17.20;99.90;;;;;;5001931;28;20760;-39
2021/05/21 09:58:04;;;;;;;2.17;1.23;;;17.30;99.90;;;;;;4992694;28;20300;-39
2021/05/21 10:00:31;;;;;;;1.55;1.10;;;17.40;99.90;;;;;;4992700;28;20232;-41
2021/05/21 10:02:58;;;;;;;5.55;1.80;;;17.40;99.90;;;;;;4992571;28;20322;-39
2021/05/21 10:05:25;;;;;;;2.78;1.15;;;17.50;99.90;;;;;;4996095;28;20201;-39
2021/05/21 10:07:53;;;;;;;1.23;1.13;;;17.60;99.90;;;;;;4992330;28;20224;-39
2021/05/21 10:10:23;;;;;;;2.50;1.17;;;17.50;99.90;;;;;;4991901;28;20198;-42
2021/05/21 10:12:50;;;;;;;3.92;1.00;;;17.30;99.90;;;;;;4992398;28;20567;-40
2021/05/21 10:15:17;;;;;;;3.00;1.25;;;17.20;99.90;;;;;;4992141;28;20272;-39
2021/05/21 10:17:45;;;;;;;2.55;1.25;;;17.20;99.90;;;;;;4993676;28;20293;-40
2021/05/21 10:20:15;;;;;;;5.78;1.70;;;17.20;99.90;;;;;;5004784;28;20771;-38
2021/05/21 10:22:46;;;;;;;2.28;1.00;;;17.40;99.90;;;;;;5006962;28;20223;-39
2021/05/21 10:25:20;;;;;;;4.40;1.35;;;17.30;99.90;;;;;;5010532;28;20205;-39
2021/05/21 10:27:51;;;;;;;2.53;1.42;;;17.10;99.90;;;;;;5002253;28;20197;-39
2021/05/21 10:30:22;;;;;;;1.58;1.38;;;17.20;99.90;;;;;;4991775;28;20255;-38
2021/05/21 10:32:49;;;;;;;2.05;1.10;;;17.40;99.90;;;;;;4996244;28;20197;-38
2021/05/21 10:35:18;;;;;;;3.33;1.20;;;17.40;99.90;;;;;;4995233;28;20210;-39
2021/05/21 10:38:18;;;;;;;2.20;1.40;;;17.40;99.90;;;;;;4993273;28;20205;-40
2021/05/21 10:41:15;;;;;;;2.83;1.00;;;17.40;99.90;;;;;;5033126;22;20224;-78
2021/05/21 10:43:54;;;;;;;3.45;1.42;;;17.20;99.90;;;;;;5002958;28;20720;-80
2021/05/21 10:46:42;;;;;;;1.10;0.85;;;17.20;99.90;;;;;;4967783;28;20697;-80
2021/05/21 10:49:24;;;;;;;5.93;1.60;;;17.20;99.90;;;;;;4982023;28;20561;-80
2021/05/21 10:51:53;;;;;;;4.80;1.33;;;17.10;99.90;;;;;;4978252;28;20744;-78
2021/05/21 10:54:28;;;;;;;1.58;1.13;;;17.20;99.90;;;;;;4977680;28;20244;-77
2021/05/21 10:56:58;;;;;;;4.43;1.85;;;17.20;99.90;;;;;;4976495;28;20221;-77
2021/05/21 10:59:54;;;;;;;2.45;1.13;;;17.50;99.90;;;;;;4976495;28;20289;-76
2021/05/21 11:02:22;;;;;;;3.40;1.20;;;17.60;99.90;;;;;;4961195;28;20301;-77
2021/05/21 11:04:49;;;;;;;2.70;1.15;;;17.40;99.90;;;;;;4977816;28;20218;-78
2021/05/21 11:07:32;;;;;;;2.97;1.35;;;17.50;99.90;;;;;;4977639;28;20201;-79
2021/05/21 11:09:59;;;;;;;4.90;1.38;;;17.40;99.90;;;;;;4964967;28;20220;-78
2021/05/21 11:12:43;;;;;;;5.88;1.58;;;17.40;99.90;;;;;;4963384;28;20224;-78
2021/05/21 11:15:34;;;;;;;3.85;1.10;;;17.40;99.90;;;;;;4982287;28;20226;-78
2021/05/21 11:18:13;;;;;;;2.92;1.90;;;17.40;99.90;;;;;;4950129;28;20206;-78
2021/05/21 11:20:58;;;;;;;3.72;1.50;;;17.40;99.90;;;;;;4984864;28;20226;-78
2021/05/21 11:23:27;;;;;;;3.30;1.23;;;17.60;99.90;;;;;;4966028;28;20218;-78
2021/05/21 11:26:05;;;;;;;4.82;1.58;;;17.70;99.90;;;;;;4946994;28;20206;-77
2021/05/21 11:28:39;;;;;;;5.03;1.73;;;17.40;99.90;;;;;;4962000;28;20209;-78
2021/05/21 11:31:12;;;;;;;3.28;1.25;;;17.40;99.90;;;;;;4979559;28;20205;-78
2021/05/21 11:33:55;;;;;;;2.55;1.50;;;17.30;99.90;;;;;;4978889;28;20261;-78
2021/05/21 11:36:23;;;;;;;6.60;1.60;;;17.30;99.90;;;;;;4978116;28;20198;-78
2021/05/21 11:38:51;;;;;;;4.13;1.27;;;17.20;99.90;;;;;;4982804;28;20209;-79
2021/05/21 11:41:30;;;;;;;3.80;1.48;;;17.50;99.90;;;;;;4981225;28;20229;-78
2021/05/21 11:44:05;;;;;;;5.63;1.80;;;17.60;99.90;;;;;;4982530;28;20225;-78
2021/05/21 11:46:43;;;;;;;5.07;2.28;;;17.60;99.90;;;;;;4984776;28;20267;-80
2021/05/21 11:49:19;;;;;;;7.35;2.90;;;17.50;99.90;;;;;;4985633;28;20205;-80
2021/05/21 11:51:53;;;;;;;9.23;2.55;;;17.40;99.90;;;;;;4982834;28;20213;-80
2021/05/21 11:54:22;;;;;;;8.07;3.42;;;17.10;99.90;;;;;;5003466;28;20232;-79
2021/05/21 11:56:48;;;;;;;7.55;3.10;;;16.90;99.90;;;;;;5004908;28;20203;-79
2021/05/21 11:59:22;;;;;;;6.25;2.67;;;16.80;99.90;;;;;;5008586;28;20209;-79
2021/05/21 12:02:49;;;;;;;5.15;2.72;;;16.90;99.90;;;;;;4985976;28;20202;-79
2021/05/21 12:09:24;;;;;;;10.65;3.25;;;16.40;99.90;;;;;;4984366;28;20202;-80
2021/05/21 12:12:19;;;;;;;4.40;2.58;;;16.60;99.90;;;;;;4965864;28;20224;-79
2021/05/21 12:15:24;;;;;;;3.55;2.58;;;16.70;99.90;;;;;;4963841;28;20208;-80
2021/05/21 12:18:04;;;;;;;8.40;3.00;;;16.50;99.90;;;;;;4990832;28;20202;-79
2021/05/21 12:24:19;;;;;;;6.82;2.70;;;16.30;99.90;;;;;;5011001;28;20228;-79
2021/05/21 12:26:49;;;;;;;7.30;3.42;;;16.90;99.90;;;;;;4995028;28;20231;-79
2021/05/21 12:29:16;;;;;;;7.53;2.97;;;17.40;99.90;;;;;;4996856;28;20224;-80
2021/05/21 12:31:47;;;;;;;11.35;3.35;;;18.10;99.90;;;;;;5010584;28;20198;-80
2021/05/21 12:34:23;;;;;;;6.78;2.85;;;18.80;99.90;;;;;;5009158;28;20293;-79
2021/05/21 12:36:58;;;;;;;7.03;2.42;;;19.30;99.90;;;;;;5009705;28;20200;-80
2021/05/21 12:39:31;;;;;;;4.40;2.08;;;19.70;99.90;;;;;;4990809;28;20205;-81
2021/05/21 12:42:02;;;;;;;3.75;2.03;;;20.00;99.90;;;;;;4988819;28;20284;-79
2021/05/21 12:44:30;;;;;;;6.07;2.28;;;19.40;99.90;;;;;;4972662;28;20227;-79
2021/05/21 12:47:01;;;;;;;6.53;2.75;;;19.10;99.90;;;;;;4988808;28;20216;-79
2021/05/21 12:49:29;;;;;;;8.32;2.55;;;18.90;99.90;;;;;;5004889;28;20595;-80
2021/05/21 12:51:58;;;;;;;4.38;1.90;;;18.90;99.90;;;;;;4988304;28;20209;-79
2021/05/21 12:54:27;;;;;;;5.63;2.50;;;18.40;99.90;;;;;;4987488;28;20232;-80
2021/05/21 12:57:02;;;;;;;6.68;1.80;;;18.50;99.90;;;;;;4985492;28;20201;-80
2021/05/21 12:59:38;;;;;;;7.93;2.50;;;18.30;99.90;;;;;;4985928;28;20287;-79
2021/05/21 13:02:09;;;;;;;5.70;2.35;;;18.40;99.90;;;;;;5006234;28;20193;-79
2021/05/21 13:04:36;;;;;;;7.97;2.60;;;19.00;99.90;;;;;;4990919;28;20221;-80
2021/05/21 13:07:03;;;;;;;4.40;1.40;;;19.60;99.90;;;;;;4992255;28;20356;-79